createdAt,value
2023-02-04T08:17:02.110Z,2.85
2023-02-04T08:29:02.577Z,2.05
2023-02-04T08:41:03.040Z,1.81
2023-02-04T08:53:03.478Z,2.45
2023-02-04T09:05:03.946Z,2.16
2023-02-04T09:17:04.391Z,1.97
2023-02-04T09:29:04.842Z,0.14
2023-02-04T09:41:05.334Z,0.48
2023-02-04T09:53:05.772Z,1.74
2023-02-04T10:05:06.615Z,2.24
2023-02-04T10:17:06.617Z,2.87
2023-02-04T10:29:09.545Z,2.73
2023-02-04T10:41:07.543Z,2.26
2023-02-04T10:53:07.990Z,2.56
2023-02-04T11:05:08.439Z,2.51
2023-02-04T11:17:08.920Z,2.98
2023-02-04T11:29:09.350Z,2.16
2023-02-04T11:41:09.787Z,1.61
2023-02-04T11:53:10.262Z,2.38
2023-02-04T12:05:10.715Z,1.85
2023-02-04T12:17:11.189Z,2.13
2023-02-04T12:29:11.634Z,2.52
2023-02-04T12:41:12.063Z,2.99
2023-02-04T12:53:12.555Z,2.88
2023-02-04T13:05:12.959Z,2.72
2023-02-04T13:17:13.430Z,3.45
2023-02-04T13:29:13.874Z,2.78
2023-02-04T13:41:14.357Z,3.24
2023-02-04T13:53:14.772Z,3.07
2023-02-04T14:05:15.216Z,3.01
2023-02-04T14:17:15.690Z,2.58
2023-02-04T14:29:16.201Z,2.34
2023-02-04T14:41:16.587Z,1.96
2023-02-04T14:53:17.047Z,1.88
2023-02-04T15:05:17.519Z,1.69
2023-02-04T15:17:17.986Z,1.48
2023-02-04T15:29:18.389Z,1.29
2023-02-04T15:41:18.877Z,1.14
2023-02-04T15:53:19.321Z,1.13
2023-02-04T16:05:19.806Z,0.97
2023-02-04T16:17:20.267Z,0.89
2023-02-04T16:29:20.653Z,0.86
2023-02-04T16:41:21.127Z,0.79
2023-02-04T16:53:21.596Z,0.72
2023-02-04T17:05:22.106Z,0.82
2023-02-04T17:17:22.477Z,0.80
2023-02-04T17:29:22.936Z,0.80
2023-02-04T17:41:23.406Z,0.80
2023-02-04T17:53:23.808Z,0.97
2023-02-04T18:05:24.295Z,0.85
2023-02-04T18:17:24.745Z,0.78
2023-02-04T18:29:25.195Z,0.78
2023-02-04T18:41:25.603Z,0.85
2023-02-04T18:53:26.056Z,0.85
2023-02-04T19:05:26.543Z,0.87
2023-02-04T19:17:27.039Z,0.85
2023-02-04T19:29:27.389Z,1.08
2023-02-04T19:41:27.852Z,0.97
2023-02-04T19:53:28.341Z,0.57
2023-02-04T20:05:28.774Z,0.78
2023-02-04T20:17:29.256Z,0.89
2023-02-04T20:29:29.716Z,0.61
2023-02-04T20:41:30.138Z,0.77
2023-02-04T20:53:30.637Z,0.85
2023-02-04T21:05:31.233Z,0.75
2023-02-04T21:17:31.468Z,0.66
2023-02-04T21:29:31.937Z,0.68
2023-02-04T21:41:32.434Z,0.18
2023-02-04T21:53:32.861Z,-0.12
2023-02-04T22:05:33.697Z,-0.25
2023-02-04T22:17:33.770Z,-0.56
2023-02-04T22:29:34.234Z,-1.02
2023-02-04T22:41:34.682Z,-1.59
2023-02-04T22:53:35.085Z,-1.75
2023-02-04T23:05:35.844Z,-1.66
2023-02-04T23:17:36.017Z,-1.63
2023-02-04T23:29:36.468Z,-1.73
2023-02-04T23:41:36.941Z,-1.70
2023-02-04T23:53:37.371Z,-1.87
